Terminal Aerodrome Forecast
Issued by NWS

Home | Current Version | Previous Version | Text Only | Print | Product List | Glossary On
Versions: 1 2 3 4 5 6 7 8 9 10 11 12 13 14 15 16 17 18 19 20 21 22 23 24 25 26 27 28 29 30
000
FTUS41 KBOX 012323
TAFBED
TAF
KBED 012323Z 0200/0224 15005KT P6SM -SHRA OVC050
     FM020400 00000KT 5SM -DZ BR OVC035
     FM021000 04004KT 3SM -DZ BR OVC008
     FM021300 04004KT 5SM BR VCSH OVC010
     FM021800 06005KT 4SM -SHRA OVC010
     FM022300 01004KT P6SM BKN010=

USA.gov is the U.S. government's official web portal to all federal, state and local government web resources and services.